Time;durP1;ratioP1;P1;durP2;ratioP2;P2;SDS_P1;SDS_P2;PMS_P1;PMS_P2;Temp;Humidity;BMP_temperature;BMP_pressure;BME280_temperature;BME280_humidity;BME280_pressure;Samples;Min_cycle;Max_cycle;Signal;HPM_P1;HPM_P2
2022/04/06 07:53:12;;;;;;;8.30;1.48;;;;;;;10.33;100.00;96757.06;5077505;27;20379;-84
2022/04/06 07:55:38;;;;;;;8.52;1.80;;;;;;;10.54;100.00;96758.06;5073767;28;20033;-85
2022/04/06 07:58:04;;;;;;;9.20;1.63;;;;;;;10.67;100.00;96746.34;5081136;28;20482;-86
2022/04/06 08:00:33;;;;;;;7.30;2.40;;;;;;;10.41;100.00;96738.28;5074943;28;20035;-85
2022/04/06 08:03:00;;;;;;;8.70;1.83;;;;;;;10.62;100.00;96745.53;5074127;28;20034;-85
2022/04/06 08:05:26;;;;;;;11.27;2.45;;;;;;;10.51;100.00;96736.78;5078552;28;20032;-83
2022/04/06 08:07:53;;;;;;;9.10;2.15;;;;;;;10.63;100.00;96732.16;5078378;28;20028;-85
2022/04/06 08:10:19;;;;;;;7.43;2.55;;;;;;;10.50;100.00;96720.25;5078610;28;20111;-85
2022/04/06 08:12:47;;;;;;;7.25;2.50;;;;;;;10.55;100.00;96725.56;5081080;28;20021;-83
2022/04/06 08:15:14;;;;;;;5.75;1.75;;;;;;;10.51;100.00;96728.91;5080780;28;20036;-83
2022/04/06 08:17:45;;;;;;;10.95;1.73;;;;;;;10.55;100.00;96709.00;5080117;28;20032;-82
2022/04/06 08:20:14;;;;;;;9.32;2.35;;;;;;;10.41;100.00;96706.03;5077034;28;20436;-82
2022/04/06 08:22:41;;;;;;;7.47;1.83;;;;;;;10.27;100.00;96727.38;5079099;28;20021;-82
2022/04/06 08:25:08;;;;;;;7.22;1.75;;;;;;;10.28;100.00;96722.94;5077933;28;20032;-82
2022/04/06 08:27:41;;;;;;;7.85;1.83;;;;;;;10.15;100.00;96735.41;5073844;28;20418;-82
2022/04/06 08:30:11;;;;;;;11.05;1.83;;;;;;;10.42;100.00;96718.09;5077138;28;20429;-82
2022/04/06 08:32:37;;;;;;;6.32;1.90;;;;;;;10.35;100.00;96730.63;5077316;28;20037;-83
2022/04/06 08:35:08;;;;;;;10.13;2.20;;;;;;;10.19;100.00;96720.00;5076501;28;20036;-82
2022/04/06 08:37:34;;;;;;;6.78;1.40;;;;;;;10.13;100.00;96732.25;5080473;28;20169;-86
2022/04/06 08:40:00;;;;;;;7.03;1.95;;;;;;;10.12;100.00;96711.53;5079486;28;20118;-85
2022/04/06 08:42:27;;;;;;;10.52;1.83;;;;;;;10.07;100.00;96721.97;5077143;28;20028;-85
2022/04/06 08:44:54;;;;;;;4.68;1.50;;;;;;;9.94;100.00;96712.69;5079347;28;20509;-86
2022/04/06 08:47:20;;;;;;;10.23;1.70;;;;;;;9.91;100.00;96711.34;5074710;28;20048;-86
2022/04/06 08:49:45;;;;;;;13.50;2.15;;;;;;;10.15;100.00;96727.56;5078812;28;20107;-84
2022/04/06 08:52:12;;;;;;;7.57;1.85;;;;;;;10.05;100.00;96698.63;5060910;28;20045;-83
2022/04/06 08:54:38;;;;;;;8.48;2.25;;;;;;;10.20;100.00;96726.00;5059131;28;20113;-83
2022/04/06 08:57:05;;;;;;;7.65;1.58;;;;;;;10.33;100.00;96725.59;5079349;28;20036;-84
2022/04/06 08:59:32;;;;;;;7.78;2.35;;;;;;;10.37;100.00;96726.69;5076643;28;20036;-83
2022/04/06 09:01:58;;;;;;;4.90;1.50;;;;;;;10.58;100.00;96713.75;5079356;28;20459;-83
2022/04/06 09:04:24;;;;;;;5.55;1.70;;;;;;;10.66;100.00;96730.84;5065001;28;20025;-84
2022/04/06 09:06:50;;;;;;;4.65;1.55;;;;;;;10.76;100.00;96717.00;5063722;28;20052;-83
2022/04/06 09:09:24;;;;;;;7.70;1.73;;;;;;;10.55;100.00;96727.38;5063198;28;20409;-83
2022/04/06 09:11:49;;;;;;;;;;;;;;;11.00;100.00;96715.59;5063204;28;20106;-83
2022/04/06 09:14:15;;;;;;;6.57;1.70;;;;;;;10.84;100.00;96698.97;5069533;28;19912;-83
2022/04/06 09:16:41;;;;;;;7.78;1.63;;;;;;;10.85;100.00;96699.75;5066387;28;20055;-82
2022/04/06 09:19:11;;;;;;;6.78;1.55;;;;;;;11.03;100.00;96701.16;5064853;28;20029;-83
2022/04/06 09:21:41;;;;;;;5.85;1.33;;;;;;;11.09;100.00;96694.09;5063178;28;20061;-83
2022/04/06 09:24:14;;;;;;;8.45;1.50;;;;;;;11.19;100.00;96685.50;5048765;28;20032;-84
2022/04/06 09:26:55;;;;;;;5.50;1.13;;;;;;;11.42;100.00;96687.66;5059349;28;20131;-84
2022/04/06 09:29:21;;;;;;;3.67;1.10;;;;;;;11.74;100.00;96696.41;5064229;28;20028;-83
2022/04/06 09:31:48;;;;;;;5.53;1.35;;;;;;;11.61;100.00;96683.78;5060999;28;20031;-84
2022/04/06 09:34:14;;;;;;;4.95;1.10;;;;;;;11.87;100.00;96681.97;5065382;28;20051;-83
2022/04/06 09:36:39;;;;;;;8.52;1.40;;;;;;;11.48;100.00;96687.69;5062725;28;20033;-83
2022/04/06 09:39:06;;;;;;;5.68;1.33;;;;;;;11.71;100.00;96673.28;5067394;28;20147;-83
2022/04/06 09:41:32;;;;;;;6.57;1.90;;;;;;;12.16;100.00;96692.03;5064943;28;20021;-84
2022/04/06 09:47:38;;;;;;;8.43;2.03;;;;;;;12.18;100.00;96670.72;5063374;28;20028;-83
2022/04/06 09:50:23;;;;;;;5.22;1.63;;;;;;;12.97;100.00;96655.34;5062718;28;20032;-84
2022/04/06 09:52:51;;;;;;;6.07;1.45;;;;;;;13.49;100.00;96665.69;5069155;28;20044;-83
2022/04/06 09:55:21;;;;;;;6.90;2.00;;;;;;;13.46;100.00;96668.06;5061769;28;20028;-84
2022/04/06 09:57:52;;;;;;;3.38;1.38;;;;;;;13.49;100.00;96659.63;5053664;28;20044;-84
2022/04/06 10:00:22;;;;;;;4.82;1.65;;;;;;;13.73;100.00;96654.47;5062489;28;20486;-83
2022/04/06 10:02:59;;;;;;;5.38;2.08;;;;;;;13.26;100.00;96661.78;5066939;28;20049;-84
2022/04/06 10:05:27;;;;;;;7.07;1.52;;;;;;;13.07;100.00;96669.53;5064488;28;20043;-83
2022/04/06 10:07:55;;;;;;;5.65;1.67;;;;;;;12.95;100.00;96635.59;5060551;28;20028;-84
2022/04/06 10:10:24;;;;;;;7.40;1.75;;;;;;;12.80;100.00;96642.47;5063398;28;20032;-84
2022/04/06 10:12:50;;;;;;;3.80;1.35;;;;;;;12.71;100.00;96663.31;5044966;28;20036;-83
2022/04/06 10:15:17;;;;;;;5.90;1.77;;;;;;;13.17;100.00;96648.44;5060225;28;20029;-83
2022/04/06 10:17:43;;;;;;;7.03;1.70;;;;;;;12.69;100.00;96672.53;5064124;28;20032;-82
2022/04/06 10:20:26;;;;;;;4.32;1.10;;;;;;;11.92;100.00;96674.13;5064696;28;20380;-82
2022/04/06 10:23:00;;;;;;;4.35;1.23;;;;;;;11.61;100.00;96678.53;5061332;28;20029;-83
2022/04/06 10:25:25;;;;;;;;;;;;;;;11.38;100.00;96670.03;5061079;28;20025;-83
2022/04/06 10:27:55;;;;;;;4.95;1.08;;;;;;;11.16;100.00;96668.41;5067282;28;19948;-83
2022/04/06 10:30:26;;;;;;;5.90;0.82;;;;;;;10.75;100.00;96669.00;5060098;28;20056;-84
2022/04/06 10:32:53;;;;;;;4.82;1.08;;;;;;;10.55;100.00;96674.91;5049405;28;20043;-83
2022/04/06 10:35:27;;;;;;;5.55;1.20;;;;;;;10.43;100.00;96668.03;5063783;28;20025;-84
2022/04/06 10:37:58;;;;;;;5.40;1.10;;;;;;;10.77;100.00;96668.75;5062781;28;20095;-83
2022/04/06 10:40:48;;;;;;;6.35;1.10;;;;;;;10.85;100.00;96657.78;5065013;28;20070;-82
2022/04/06 10:43:40;;;;;;;3.35;0.65;;;;;;;10.90;100.00;96642.06;5065332;28;20475;-82
2022/04/06 10:46:10;;;;;;;2.05;0.73;;;;;;;10.73;100.00;96655.34;5061194;28;20063;-83
2022/04/06 10:48:57;;;;;;;1.98;1.00;;;;;;;10.50;100.00;96638.16;5058400;28;20544;-83
2022/04/06 10:51:37;;;;;;;1.20;0.70;;;;;;;10.47;100.00;96636.06;5065113;28;20464;-83
2022/04/06 10:54:12;;;;;;;1.40;0.82;;;;;;;10.37;100.00;96634.91;5044456;28;20033;-82
2022/04/06 10:56:49;;;;;;;3.83;0.98;;;;;;;10.57;100.00;96642.16;5065071;28;20466;-84
2022/04/06 10:59:19;;;;;;;2.60;1.15;;;;;;;10.85;100.00;96631.53;5044111;28;20063;-84
2022/04/06 11:01:48;;;;;;;1.13;1.08;;;;;;;11.00;100.00;96623.72;5061995;28;20039;-83
2022/04/06 11:04:23;;;;;;;2.42;1.10;;;;;;;10.91;100.00;96634.97;5058907;28;20040;-83
2022/04/06 11:06:56;;;;;;;2.17;1.10;;;;;;;10.64;100.00;96634.06;5057987;28;20032;-83
2022/04/06 11:12:28;;;;;;;3.75;0.70;;;;;;;10.27;100.00;96624.34;5062787;28;20037;-83
2022/04/06 11:15:00;;;;;;;0.75;0.45;;;;;;;10.22;100.00;96635.59;5064205;28;20036;-84
2022/04/06 11:17:32;;;;;;;1.00;0.73;;;;;;;9.93;100.00;96628.03;5065706;28;20029;-83
2022/04/06 11:20:11;;;;;;;2.10;0.57;;;;;;;9.68;100.00;96615.50;5062790;28;20482;-86
2022/04/06 11:23:00;;;;;;;2.03;0.52;;;;;;;9.93;100.00;96603.66;5039272;28;20037;-83
2022/04/06 11:25:29;;;;;;;0.85;0.50;;;;;;;10.15;100.00;96609.59;5059533;28;20048;-82
2022/04/06 11:28:06;;;;;;;0.60;0.52;;;;;;;10.54;100.00;96599.88;5062268;28;20513;-82
2022/04/06 11:30:34;;;;;;;0.45;0.45;;;;;;;10.69;100.00;96597.34;5060941;28;20037;-83
2022/04/06 11:33:02;;;;;;;1.38;0.40;;;;;;;10.51;100.00;96593.31;5063383;28;20036;-81
2022/04/06 11:35:30;;;;;;;1.05;0.60;;;;;;;10.61;100.00;96583.94;5059134;28;20119;-83
2022/04/06 11:37:56;;;;;;;1.45;0.85;;;;;;;10.53;100.00;96569.47;5059368;28;20068;-81
2022/04/06 11:40:24;;;;;;;2.03;0.60;;;;;;;10.89;100.00;96589.81;5057285;28;20059;-83
2022/04/06 11:42:51;;;;;;;1.30;0.70;;;;;;;11.12;100.00;96573.63;5060449;28;20064;-82
2022/04/06 11:45:27;;;;;;;1.23;0.77;;;;;;;11.48;100.00;96561.59;5056673;28;20087;-81
2022/04/06 11:47:57;;;;;;;0.73;0.45;;;;;;;11.51;100.00;96559.22;5058205;28;20502;-82
2022/04/06 11:50:30;;;;;;;0.80;0.63;;;;;;;11.93;100.00;96564.50;5060945;28;20029;-83
2022/04/06 11:53:02;;;;;;;0.43;0.43;;;;;;;11.97;100.00;96549.75;5060628;28;20062;-84
2022/04/06 11:55:48;;;;;;;0.60;0.60;;;;;;;11.82;100.00;96537.44;5063187;28;20044;-84
2022/04/06 11:58:37;;;;;;;0.55;0.45;;;;;;;11.74;100.00;96536.09;5058983;28;20033;-82
2022/04/06 12:01:15;;;;;;;1.77;0.80;;;;;;;11.54;100.00;96536.91;5068972;28;20029;-81
2022/04/06 12:03:43;;;;;;;0.43;0.43;;;;;;;11.26;100.00;96534.53;5066613;28;20521;-81
2022/04/06 12:06:11;;;;;;;0.82;0.75;;;;;;;11.45;100.00;96527.97;5058479;28;20032;-81
2022/04/06 12:08:38;;;;;;;2.58;0.60;;;;;;;11.94;100.00;96524.00;5055660;28;20036;-84
2022/04/06 12:11:04;;;;;;;2.05;0.82;;;;;;;12.22;100.00;96530.56;5064209;28;20106;-83
2022/04/06 12:13:35;;;;;;;1.00;0.80;;;;;;;12.35;100.00;96523.94;5061879;28;20121;-82
2022/04/06 12:16:02;;;;;;;1.95;0.82;;;;;;;12.17;100.00;96527.13;5063230;28;20067;-83
2022/04/06 12:18:28;;;;;;;1.13;0.60;;;;;;;12.31;100.00;96535.28;5059878;28;20032;-83
2022/04/06 12:20:57;;;;;;;0.82;0.63;;;;;;;12.31;100.00;96538.69;5063421;28;20025;-82
2022/04/06 12:23:24;;;;;;;0.52;0.50;;;;;;;12.63;100.00;96531.47;5051254;28;20836;-83
2022/04/06 12:25:50;;;;;;;0.60;0.50;;;;;;;13.39;100.00;96526.84;5054537;28;20041;-82
2022/04/06 12:28:23;;;;;;;0.40;0.40;;;;;;;13.26;100.00;96524.81;5063270;28;20131;-82
2022/04/06 12:31:01;;;;;;;0.85;0.50;;;;;;;13.22;100.00;96535.13;5061942;28;20037;-84
2022/04/06 12:33:39;;;;;;;1.25;0.68;;;;;;;13.10;100.00;96537.31;5062660;28;20059;-83
2022/04/06 12:36:20;;;;;;;1.08;0.77;;;;;;;13.18;100.00;96528.03;5062272;28;20111;-83
2022/04/06 12:38:59;;;;;;;0.52;0.52;;;;;;;13.58;100.00;96547.28;5060965;28;20079;-82
2022/04/06 12:41:29;;;;;;;1.25;0.55;;;;;;;13.03;100.00;96531.56;5061470;28;20738;-83
2022/04/06 12:43:55;;;;;;;1.33;1.02;;;;;;;12.73;100.00;96525.38;5063875;28;20039;-84
2022/04/06 12:46:44;;;;;;;0.68;0.50;;;;;;;13.00;100.00;96535.50;5064278;28;20033;-85
2022/04/06 12:49:17;;;;;;;1.48;0.50;;;;;;;12.83;100.00;96523.47;5065188;28;20028;-85
2022/04/06 12:51:42;;;;;;;;;;;;;;;12.86;100.00;96520.31;5066088;28;20040;-83
2022/04/06 12:54:09;;;;;;;2.45;0.68;;;;;;;12.78;100.00;96504.31;5064962;28;20390;-84
2022/04/06 12:56:35;;;;;;;1.75;0.73;;;;;;;12.59;100.00;96507.56;5064114;28;20029;-84
2022/04/06 12:59:11;;;;;;;0.85;0.60;;;;;;;12.63;100.00;96490.16;5064929;28;20107;-85
2022/04/06 13:01:47;;;;;;;1.85;0.70;;;;;;;12.56;100.00;96487.81;5063782;28;20032;-84
2022/04/06 13:04:13;;;;;;;3.50;1.33;;;;;;;12.37;100.00;96481.59;5056945;28;20025;-86
2022/04/06 13:06:40;;;;;;;3.42;1.63;;;;;;;12.36;100.00;96462.38;5063886;28;20032;-87
2022/04/06 13:09:14;;;;;;;1.27;0.90;;;;;;;12.90;100.00;96467.91;5065627;28;20094;-85
2022/04/06 13:11:40;;;;;;;1.42;0.98;;;;;;;13.30;100.00;96467.91;5050725;28;20028;-85
2022/04/06 13:14:07;;;;;;;0.95;0.80;;;;;;;13.73;100.00;96448.84;5050889;28;20115;-85
2022/04/06 13:16:36;;;;;;;3.03;0.85;;;;;;;14.25;100.00;96453.56;5068069;28;20030;-86
2022/04/06 13:19:04;;;;;;;1.65;0.60;;;;;;;14.38;100.00;96429.13;5067017;28;20778;-86
2022/04/06 13:21:33;;;;;;;1.00;0.75;;;;;;;14.18;100.00;96443.34;5063842;28;20033;-86
2022/04/06 13:24:01;;;;;;;2.22;0.75;;;;;;;12.24;100.00;96485.59;5064817;28;20063;-85
2022/04/06 13:26:27;;;;;;;3.03;1.27;;;;;;;10.91;100.00;96446.78;5065763;28;20045;-85
2022/04/06 13:28:52;;;;;;;2.58;1.00;;;;;;;10.89;100.00;96459.38;5061834;28;20021;-86
2022/04/06 13:31:19;;;;;;;2.92;1.35;;;;;;;10.96;100.00;96438.91;5047352;28;20021;-85
2022/04/06 13:33:44;;;;;;;2.75;1.10;;;;;;;10.53;100.00;96430.44;5057887;28;20036;-86
2022/04/06 13:36:10;;;;;;;3.35;1.10;;;;;;;10.03;100.00;96409.81;5064236;28;20044;-85
2022/04/06 13:38:36;;;;;;;5.30;1.00;;;;;;;9.86;100.00;96408.16;5065527;28;20036;-80
2022/04/06 13:41:03;;;;;;;2.72;0.85;;;;;;;10.00;100.00;96437.31;5061244;28;20051;-83
2022/04/06 13:43:29;;;;;;;3.25;1.08;;;;;;;9.97;100.00;96418.69;5059814;28;20029;-83
2022/04/06 13:45:55;;;;;;;2.72;1.25;;;;;;;9.65;100.00;96411.72;5060915;28;20502;-83
2022/04/06 13:48:20;;;;;;;1.75;0.98;;;;;;;9.53;100.00;96391.75;5060388;28;20033;-84
2022/04/06 13:50:46;;;;;;;2.67;1.08;;;;;;;9.69;100.00;96392.59;5044761;28;20028;-83
2022/04/06 13:53:11;;;;;;;5.25;1.60;;;;;;;9.99;100.00;96408.72;5064203;28;20032;-83
2022/04/06 13:55:37;;;;;;;2.53;1.05;;;;;;;10.12;100.00;96387.28;5048400;28;20506;-84
2022/04/06 13:58:03;;;;;;;3.63;1.08;;;;;;;10.77;100.00;96391.41;5064493;28;20124;-83
2022/04/06 14:00:30;;;;;;;4.53;1.20;;;;;;;10.44;100.00;96359.34;5063268;28;20025;-84
2022/04/06 14:02:56;;;;;;;2.55;0.90;;;;;;;10.44;100.00;96385.56;5064475;28;20029;-84
2022/04/06 14:05:22;;;;;;;3.63;1.38;;;;;;;10.77;100.00;96380.91;5064402;28;20041;-85
2022/04/06 14:07:49;;;;;;;5.63;1.20;;;;;;;10.60;100.00;96373.28;5065399;28;20031;-85
2022/04/06 14:10:16;;;;;;;1.92;1.08;;;;;;;10.55;100.00;96370.66;5048723;28;20025;-83
2022/04/06 14:12:41;;;;;;;1.50;1.00;;;;;;;10.98;100.00;96415.03;5065286;28;20024;-84
2022/04/06 14:15:07;;;;;;;3.33;0.90;;;;;;;11.26;100.00;96382.22;5067518;28;20032;-84
2022/04/06 14:17:33;;;;;;;1.50;0.77;;;;;;;11.27;100.00;96360.16;5047724;28;20043;-83
2022/04/06 14:19:59;;;;;;;3.97;1.20;;;;;;;11.30;100.00;96369.38;5062301;28;20024;-83
2022/04/06 14:22:25;;;;;;;3.53;1.15;;;;;;;11.39;100.00;96366.97;5051559;28;20043;-84
2022/04/06 14:27:36;;;;;;;2.65;0.93;;;;;;;11.39;100.00;96369.59;5065403;28;20108;-83
2022/04/06 14:30:03;;;;;;;1.88;0.90;;;;;;;11.43;100.00;96342.53;5064653;28;20039;-83
2022/04/06 14:32:29;;;;;;;3.67;1.02;;;;;;;11.44;100.00;96359.09;5062997;28;20103;-84
2022/04/06 14:34:57;;;;;;;2.72;1.17;;;;;;;11.73;100.00;96350.59;5064430;28;20056;-83
2022/04/06 14:37:22;;;;;;;2.00;1.10;;;;;;;11.98;100.00;96359.41;5047284;28;20024;-84
2022/04/06 14:39:51;;;;;;;5.68;1.60;;;;;;;11.94;100.00;96353.94;5065677;28;20115;-84
2022/04/06 14:42:18;;;;;;;1.48;1.20;;;;;;;12.12;100.00;96352.56;5070349;28;20487;-85
2022/04/06 14:44:44;;;;;;;1.50;1.17;;;;;;;12.17;100.00;96350.97;5067403;28;20024;-84
2022/04/06 14:47:17;;;;;;;2.28;1.33;;;;;;;12.01;100.00;96356.31;5076631;28;20047;-84
2022/04/06 14:49:43;;;;;;;3.17;1.50;;;;;;;11.63;100.00;96340.91;5067542;28;20036;-84
2022/04/06 14:52:10;;;;;;;5.22;1.52;;;;;;;11.61;100.00;96352.75;5063569;28;20079;-84
2022/04/06 14:54:35;;;;;;;2.25;1.33;;;;;;;11.73;100.00;96353.22;5063146;28;20041;-84
2022/04/06 14:57:01;;;;;;;1.50;1.38;;;;;;;12.34;100.00;96343.50;5059836;28;20041;-84
2022/04/06 14:59:27;;;;;;;2.58;1.42;;;;;;;12.28;100.00;96328.81;5063390;28;20028;-83
2022/04/06 15:01:52;;;;;;;3.30;1.40;;;;;;;12.06;100.00;96331.81;5065000;28;20029;-84
2022/04/06 15:04:18;;;;;;;2.00;1.20;;;;;;;12.29;100.00;96333.00;5059923;28;20026;-84
2022/04/06 15:06:44;;;;;;;3.38;1.65;;;;;;;12.08;100.00;96279.75;5059571;28;20410;-84
2022/04/06 15:09:10;;;;;;;3.63;1.75;;;;;;;12.41;100.00;96307.16;5061633;28;20127;-84
2022/04/06 15:11:36;;;;;;;3.35;1.60;;;;;;;12.13;100.00;96300.78;5062130;28;20035;-84
2022/04/06 15:14:02;;;;;;;8.20;2.00;;;;;;;12.10;100.00;96296.06;5059687;28;20599;-84
2022/04/06 15:16:28;;;;;;;3.42;2.17;;;;;;;11.80;100.00;96322.19;5063394;28;20036;-84
2022/04/06 15:18:54;;;;;;;3.28;3.08;;;;;;;11.97;100.00;96313.97;5052501;28;20064;-86
2022/04/06 15:21:22;;;;;;;3.85;3.65;;;;;;;12.23;100.00;96300.69;5069993;28;20035;-89
2022/04/06 15:23:48;;;;;;;4.40;4.10;;;;;;;12.24;100.00;96298.88;5065834;28;20036;-87
2022/04/06 15:26:15;;;;;;;4.30;4.00;;;;;;;11.92;100.00;96286.91;5069162;28;20029;-86
2022/04/06 15:28:43;;;;;;;5.18;4.13;;;;;;;11.82;100.00;96280.66;5066362;28;20032;-85
2022/04/06 15:31:09;;;;;;;4.20;3.90;;;;;;;12.58;100.00;96300.75;5071166;28;20032;-88
2022/04/06 15:33:35;;;;;;;4.30;4.00;;;;;;;12.98;100.00;96272.50;5049333;28;20174;-87
2022/04/06 15:38:48;;;;;;;5.10;4.70;;;;;;;13.01;100.00;96263.25;5063192;28;20040;-87
2022/04/06 15:41:14;;;;;;;4.57;4.28;;;;;;;12.30;100.00;96284.63;5065260;28;20386;-85
2022/04/06 15:43:39;;;;;;;4.70;4.30;;;;;;;12.65;100.00;96298.56;5062851;28;20040;-84
2022/04/06 15:46:05;;;;;;;4.78;4.10;;;;;;;12.60;100.00;96260.97;5061687;28;20036;-84
2022/04/06 15:48:30;;;;;;;7.65;4.90;;;;;;;12.65;100.00;96258.31;5063558;28;20484;-85
2022/04/06 15:50:57;;;;;;;10.48;5.00;;;;;;;12.73;100.00;96268.25;5064513;28;20060;-85
2022/04/06 15:53:23;;;;;;;4.75;4.30;;;;;;;13.29;100.00;96274.81;5064010;28;20118;-85
2022/04/06 15:55:49;;;;;;;4.70;4.38;;;;;;;13.19;100.00;96260.97;5061132;28;20505;-84
2022/04/06 15:58:16;;;;;;;4.63;4.20;;;;;;;13.04;100.00;96246.09;5068387;28;20049;-84
2022/04/06 16:00:42;;;;;;;7.00;4.80;;;;;;;12.82;99.88;96247.38;5058216;28;20044;-85
2022/04/06 16:03:08;;;;;;;5.10;4.70;;;;;;;12.73;97.49;96256.91;5057877;28;20079;-84
2022/04/06 16:05:34;;;;;;;4.85;4.43;;;;;;;12.36;98.69;96243.28;5060705;28;20029;-82
2022/04/06 16:08:00;;;;;;;5.20;4.70;;;;;;;12.54;98.58;96239.97;5062317;28;20037;-83
2022/04/06 16:10:25;;;;;;;5.13;4.70;;;;;;;12.92;99.11;96255.16;5053457;28;20029;-83
2022/04/06 16:12:51;;;;;;;4.70;4.40;;;;;;;12.85;97.59;96246.81;5060951;28;20052;-83
2022/04/06 16:15:16;;;;;;;6.95;4.70;;;;;;;12.57;98.96;96238.63;5063257;28;20392;-82
2022/04/06 16:17:42;;;;;;;4.80;4.43;;;;;;;12.06;99.80;96237.97;5061255;28;20067;-82
2022/04/06 16:20:10;;;;;;;7.18;4.80;;;;;;;11.93;100.00;96233.28;5052805;28;20545;-82
2022/04/06 16:22:36;;;;;;;6.50;4.70;;;;;;;11.80;100.00;96226.78;5066954;28;20037;-82
2022/04/06 16:25:03;;;;;;;5.40;4.90;;;;;;;11.91;100.00;96225.69;5067596;28;20115;-82
2022/04/06 16:27:29;;;;;;;4.72;4.32;;;;;;;11.97;100.00;96223.78;5062596;28;20116;-82
2022/04/06 16:29:54;;;;;;;8.15;5.15;;;;;;;12.07;100.00;96229.03;5061571;28;20490;-81
2022/04/06 16:32:20;;;;;;;6.57;4.60;;;;;;;12.17;100.00;96222.09;5064669;28;20063;-82
2022/04/06 16:34:46;;;;;;;4.93;4.00;;;;;;;12.23;100.00;96215.78;5063936;28;20031;-82
2022/04/06 16:37:12;;;;;;;8.07;4.55;;;;;;;12.01;100.00;96227.50;5067364;28;20083;-81
2022/04/06 16:39:38;;;;;;;8.27;6.40;;;;;;;11.76;100.00;96202.13;5060713;28;20078;-82
2022/04/06 16:42:05;;;;;;;10.15;8.93;;;;;;;11.57;100.00;96211.41;5063326;28;20033;-81
2022/04/06 16:44:30;;;;;;;6.75;6.00;;;;;;;11.59;100.00;96205.88;5065448;28;20099;-81
2022/04/06 16:46:59;;;;;;;12.73;7.50;;;;;;;11.61;100.00;96203.00;5065141;28;20130;-81
2022/04/06 16:52:39;;;;;;;21.17;12.55;;;;;;;11.67;100.00;96199.28;5063205;28;20037;-82
2022/04/06 16:54:55;;;;;;;26.00;14.18;;;;;;;11.66;100.00;96187.19;5063024;28;20033;-81
2022/04/06 16:57:22;;;;;;;21.88;11.85;;;;;;;11.19;100.00;96189.25;5062573;28;20035;-80
2022/04/06 16:59:52;;;;;;;21.45;10.93;;;;;;;11.20;100.00;96180.31;5066467;28;20056;-81
2022/04/06 17:02:25;;;;;;;25.13;18.70;;;;;;;11.09;100.00;96174.34;5066846;28;20032;-80
2022/04/06 17:04:53;;;;;;;8.60;5.25;;;;;;;11.40;100.00;96177.59;5063749;28;20090;-80
2022/04/06 17:07:19;;;;;;;13.10;8.90;;;;;;;11.10;100.00;96168.81;5062064;28;20032;-81
2022/04/06 17:09:44;;;;;;;11.30;7.53;;;;;;;10.91;100.00;96167.84;5065845;28;20496;-80
2022/04/06 17:12:10;;;;;;;12.02;4.97;;;;;;;11.14;100.00;96171.69;5064294;28;20080;-80
2022/04/06 17:14:36;;;;;;;7.60;5.18;;;;;;;11.35;100.00;96161.09;5064091;28;20171;-80
2022/04/06 17:17:02;;;;;;;5.93;5.28;;;;;;;11.27;100.00;96144.06;5062078;28;20071;-83
2022/04/06 17:19:28;;;;;;;17.95;14.63;;;;;;;11.08;100.00;96164.88;5061219;28;20020;-82
2022/04/06 17:21:53;;;;;;;5.70;4.13;;;;;;;10.62;100.00;96161.34;5061239;28;20039;-82
2022/04/06 17:24:19;;;;;;;10.25;4.32;;;;;;;10.69;100.00;96166.31;5047513;28;20074;-84
2022/04/06 17:26:45;;;;;;;7.95;3.47;;;;;;;10.64;100.00;96145.34;5059980;28;20055;-87
2022/04/06 17:29:11;;;;;;;3.42;2.78;;;;;;;10.47;100.00;96154.28;5066084;28;20037;-86
2022/04/06 17:31:39;;;;;;;6.85;3.00;;;;;;;10.41;100.00;96137.75;5068243;28;20028;-82
2022/04/06 17:34:05;;;;;;;3.30;3.00;;;;;;;10.26;100.00;96107.09;5065212;28;20037;-79
2022/04/06 17:36:31;;;;;;;4.90;4.35;;;;;;;10.71;100.00;96106.50;5059953;28;20032;-81
2022/04/06 17:38:57;;;;;;;4.30;2.97;;;;;;;11.16;100.00;96117.06;5045916;28;20401;-81
2022/04/06 17:41:25;;;;;;;3.60;3.30;;;;;;;11.10;100.00;96086.66;5063627;28;20032;-80
2022/04/06 17:43:51;;;;;;;11.13;4.55;;;;;;;10.92;100.00;96101.94;5065677;28;20098;-81
2022/04/06 17:46:17;;;;;;;10.10;5.28;;;;;;;10.23;100.00;96109.47;5062561;28;20052;-82
2022/04/06 17:48:44;;;;;;;7.55;3.58;;;;;;;10.10;100.00;96077.50;5063003;28;20028;-81
2022/04/06 17:51:09;;;;;;;6.72;4.45;;;;;;;9.86;100.00;96072.00;5076586;28;20115;-81
2022/04/06 17:53:35;;;;;;;5.10;3.25;;;;;;;9.81;100.00;96054.47;5059548;28;20025;-81
2022/04/06 17:56:02;;;;;;;8.50;3.63;;;;;;;9.72;100.00;96058.66;5059189;28;20030;-80
2022/04/06 17:58:27;;;;;;;9.90;3.45;;;;;;;9.83;100.00;96077.78;5060405;28;20028;-81
2022/04/06 18:00:53;;;;;;;5.55;2.90;;;;;;;9.76;100.00;96066.78;5064613;28;20119;-81
2022/04/06 18:03:19;;;;;;;8.68;3.65;;;;;;;9.61;100.00;96031.69;5062939;28;20116;-82
2022/04/06 18:05:45;;;;;;;8.05;3.65;;;;;;;9.65;100.00;96045.06;5057996;28;20056;-79
2022/04/06 18:08:12;;;;;;;6.38;3.13;;;;;;;9.64;100.00;96053.97;5050371;28;20455;-81
2022/04/06 18:13:42;;;;;;;6.68;2.80;;;;;;;9.52;100.00;96041.91;5034475;28;20049;-90
2022/04/06 18:16:14;;;;;;;4.63;2.72;;;;;;;9.52;100.00;96020.97;5043853;28;20060;-89
2022/04/06 18:18:42;;;;;;;4.80;2.60;;;;;;;9.45;100.00;96019.66;5063030;28;20040;-88
2022/04/06 18:21:09;;;;;;;6.97;3.00;;;;;;;9.59;100.00;96039.03;5060887;28;20132;-89
2022/04/06 18:23:35;;;;;;;4.03;2.50;;;;;;;9.60;100.00;96027.50;5053990;28;20044;-86
2022/04/06 18:26:03;;;;;;;6.43;2.47;;;;;;;9.31;100.00;96024.63;5066243;28;20099;-87
2022/04/06 18:28:28;;;;;;;7.68;2.95;;;;;;;9.31;100.00;96020.16;5068854;28;20406;-85
2022/04/06 18:30:54;;;;;;;5.57;2.78;;;;;;;9.12;100.00;95991.09;5064664;28;20029;-87
2022/04/06 18:33:20;;;;;;;10.27;2.60;;;;;;;9.23;100.00;96018.84;5061914;28;20482;-85
2022/04/06 18:35:48;;;;;;;10.38;2.78;;;;;;;9.07;100.00;95993.72;5044988;28;20041;-85
2022/04/06 18:38:14;;;;;;;10.38;2.83;;;;;;;9.02;100.00;95996.31;5060267;28;20028;-85
2022/04/06 18:40:42;;;;;;;6.55;2.53;;;;;;;9.05;100.00;95998.44;5063836;28;20040;-84
2022/04/06 18:43:11;;;;;;;8.95;2.67;;;;;;;8.85;100.00;95982.44;5049989;28;20032;-84
2022/04/06 18:45:38;;;;;;;8.98;2.58;;;;;;;8.64;100.00;95950.19;5062255;28;20040;-84
2022/04/06 18:48:04;;;;;;;11.57;3.25;;;;;;;8.70;100.00;95949.19;5059465;28;20024;-84
2022/04/06 18:50:32;;;;;;;11.13;2.70;;;;;;;8.65;100.00;95959.66;5067264;28;20039;-85
2022/04/06 18:52:58;;;;;;;8.80;2.47;;;;;;;8.73;100.00;95968.03;5061569;28;20178;-83
2022/04/06 18:55:24;;;;;;;11.93;4.53;;;;;;;8.81;100.00;95968.28;5058653;28;20041;-84
2022/04/06 18:57:50;;;;;;;10.13;3.05;;;;;;;8.71;100.00;95961.22;5061909;28;20036;-85
2022/04/06 19:00:17;;;;;;;9.43;5.50;;;;;;;8.60;100.00;95964.84;5063989;28;20051;-85
2022/04/06 19:02:43;;;;;;;11.15;2.42;;;;;;;8.50;100.00;95938.69;5061506;28;20029;-85
2022/04/06 19:05:09;;;;;;;11.85;2.97;;;;;;;8.68;100.00;95955.72;5065558;28;20028;-84
2022/04/06 19:07:35;;;;;;;10.10;2.25;;;;;;;8.59;100.00;95942.34;5061638;28;20063;-85
2022/04/06 19:10:01;;;;;;;8.25;2.13;;;;;;;8.44;100.00;95920.31;5063733;28;20036;-83
2022/04/06 19:12:33;;;;;;;9.00;2.22;;;;;;;8.42;100.00;95935.47;5066121;28;20367;-82
2022/04/06 19:14:59;;;;;;;8.95;2.55;;;;;;;8.51;100.00;95945.47;5060582;28;20049;-86
2022/04/06 19:17:25;;;;;;;9.77;3.15;;;;;;;8.53;100.00;95932.94;5066646;28;20037;-82
2022/04/06 19:19:50;;;;;;;12.55;2.17;;;;;;;8.49;100.00;95931.84;5061619;28;20039;-84
2022/04/06 19:22:16;;;;;;;7.35;2.20;;;;;;;8.47;100.00;95924.25;5061352;28;20082;-84
2022/04/06 19:24:42;;;;;;;10.90;2.42;;;;;;;8.48;100.00;95925.06;5061996;28;20059;-84
2022/04/06 19:27:08;;;;;;;12.98;2.15;;;;;;;8.38;100.00;95941.50;5061333;28;20033;-83
2022/04/06 19:29:37;;;;;;;12.05;2.90;;;;;;;8.36;100.00;95920.84;5061120;28;20542;-81
2022/04/06 19:32:05;;;;;;;12.27;2.88;;;;;;;8.32;100.00;95901.50;5059822;28;20122;-85
2022/04/06 19:34:31;;;;;;;16.88;2.72;;;;;;;8.41;100.00;95893.94;5062035;28;20052;-85
2022/04/06 19:36:57;;;;;;;13.85;2.75;;;;;;;8.43;100.00;95908.28;5064511;28;20032;-85
2022/04/06 19:39:23;;;;;;;5.28;1.88;;;;;;;8.42;100.00;95909.34;5045831;28;20124;-84
2022/04/06 19:41:48;;;;;;;10.35;2.78;;;;;;;8.42;100.00;95919.81;5059197;28;20101;-84